createdAt,value
2018-01-05T00:01:44.999Z,2.50
2018-01-05T00:04:13.216Z,3.10
2018-01-05T00:06:40.679Z,2.10
2018-01-05T00:09:08.172Z,3.40
2018-01-05T00:11:35.627Z,2.30
2018-01-05T00:14:03.134Z,2.37
2018-01-05T00:16:30.622Z,2.50
2018-01-05T00:18:58.130Z,3.63
2018-01-05T00:21:26.360Z,2.63
2018-01-05T00:23:53.903Z,3.07
2018-01-05T00:26:21.488Z,2.90
2018-01-05T00:28:48.997Z,3.53
2018-01-05T00:31:16.514Z,3.83
2018-01-05T00:33:44.042Z,3.67
2018-01-05T00:36:11.507Z,2.70
2018-01-05T00:38:38.998Z,3.00
2018-01-05T00:41:07.370Z,3.07
2018-01-05T00:43:35.619Z,3.03
2018-01-05T00:46:03.116Z,3.10
2018-01-05T00:48:31.403Z,2.93
2018-01-05T00:50:58.861Z,2.20
2018-01-05T00:53:26.340Z,3.80
2018-01-05T00:55:53.842Z,3.07
2018-01-05T00:58:21.306Z,3.97
2018-01-05T01:00:49.543Z,3.00
2018-01-05T01:03:17.028Z,2.90
2018-01-05T01:05:44.491Z,3.13
2018-01-05T01:08:11.950Z,2.70
2018-01-05T01:10:39.414Z,3.00
2018-01-05T01:13:07.882Z,3.43
2018-01-05T01:15:35.371Z,3.00
2018-01-05T01:18:02.840Z,2.63
2018-01-05T01:20:30.302Z,2.67
2018-01-05T01:22:57.783Z,2.67
2018-01-05T01:25:25.303Z,3.90
2018-01-05T01:27:52.718Z,3.27
2018-01-05T01:30:20.182Z,3.47
2018-01-05T01:32:48.415Z,3.30
2018-01-05T01:35:15.895Z,3.63
2018-01-05T01:37:43.395Z,2.67
2018-01-05T01:40:11.627Z,3.43
2018-01-05T01:42:39.114Z,3.20
2018-01-05T01:45:07.466Z,2.90
2018-01-05T01:47:34.926Z,3.10
2018-01-05T01:50:02.402Z,2.13
2018-01-05T01:52:29.872Z,1.70
2018-01-05T01:54:58.094Z,1.10
2018-01-05T01:57:25.654Z,1.13
2018-01-05T01:59:53.289Z,1.00
2018-01-05T02:02:20.749Z,1.27
2018-01-05T02:04:48.215Z,0.80
2018-01-05T02:07:15.666Z,1.10
2018-01-05T02:09:43.131Z,0.80
2018-01-05T02:12:10.589Z,0.70
2018-01-05T02:14:38.059Z,0.60
2018-01-05T02:17:05.518Z,0.83
2018-01-05T02:19:32.974Z,0.70
2018-01-05T02:22:00.435Z,0.73
2018-01-05T02:24:28.734Z,0.60
2018-01-05T02:26:57.082Z,0.80
2018-01-05T02:29:24.606Z,0.83
2018-01-05T02:31:52.133Z,0.67
2018-01-05T02:34:20.395Z,0.77
2018-01-05T02:36:47.855Z,1.97
2018-01-05T02:39:15.423Z,1.30
2018-01-05T02:41:43.702Z,0.50
2018-01-05T02:44:12.019Z,0.93
2018-01-05T02:46:39.514Z,0.90
2018-01-05T02:49:07.095Z,0.50
2018-01-05T02:51:35.398Z,0.60
2018-01-05T02:54:02.893Z,0.70
2018-01-05T02:56:30.413Z,0.70
2018-01-05T02:58:58.059Z,0.50
2018-01-05T03:01:26.361Z,0.70
2018-01-05T03:03:53.861Z,0.90
2018-01-05T03:06:21.367Z,0.60
2018-01-05T03:08:48.871Z,0.70
2018-01-05T03:11:16.346Z,0.70
2018-01-05T03:13:43.810Z,0.93
2018-01-05T03:16:12.109Z,0.60
2018-01-05T03:18:39.590Z,0.90
2018-01-05T03:21:07.062Z,0.70
2018-01-05T03:23:34.548Z,0.60
2018-01-05T03:26:02.424Z,0.80
2018-01-05T03:28:30.659Z,1.00
2018-01-05T03:30:58.119Z,0.70
2018-01-05T03:33:25.580Z,0.70
2018-01-05T03:35:53.033Z,1.07
2018-01-05T03:38:20.564Z,0.73
2018-01-05T03:40:48.119Z,0.70
2018-01-05T03:43:15.566Z,2.30
2018-01-05T03:45:43.035Z,0.93
2018-01-05T03:48:10.515Z,0.70
2018-01-05T03:50:38.021Z,0.60
2018-01-05T03:53:06.283Z,0.80
2018-01-05T03:55:34.561Z,0.60
2018-01-05T03:58:02.154Z,0.60
2018-01-05T04:00:29.659Z,0.70
2018-01-05T04:02:57.132Z,0.60
2018-01-05T04:05:25.363Z,0.70
2018-01-05T04:07:52.826Z,0.50
2018-01-05T04:10:20.291Z,0.70
2018-01-05T04:12:47.799Z,0.80
2018-01-05T04:15:16.076Z,0.63
2018-01-05T04:17:44.384Z,0.83
2018-01-05T04:20:12.073Z,0.70
2018-01-05T04:22:39.637Z,0.63
2018-01-05T04:25:07.203Z,0.60
2018-01-05T04:27:34.672Z,0.50
2018-01-05T04:30:02.990Z,0.70
2018-01-05T04:32:30.479Z,0.80
2018-01-05T04:34:58.040Z,0.60
2018-01-05T04:37:25.460Z,0.60
2018-01-05T04:39:53.067Z,0.50
2018-01-05T04:42:20.591Z,0.50
2018-01-05T04:44:48.163Z,0.90
2018-01-05T04:47:15.794Z,0.70
2018-01-05T04:49:44.511Z,0.63
2018-01-05T04:52:12.044Z,0.80
2018-01-05T04:54:39.551Z,0.70
2018-01-05T04:57:07.821Z,0.57
2018-01-05T04:59:35.312Z,0.73
2018-01-05T05:02:02.817Z,0.60
2018-01-05T05:04:30.370Z,0.73
2018-01-05T05:06:57.854Z,0.50
2018-01-05T05:09:25.317Z,0.87
2018-01-05T05:14:26.709Z,0.90
2018-01-05T05:16:54.170Z,0.70
2018-01-05T05:19:21.623Z,0.60
2018-01-05T05:21:49.071Z,0.83
2018-01-05T05:24:17.296Z,1.00
2018-01-05T05:26:44.751Z,0.73
2018-01-05T05:29:12.325Z,1.00
2018-01-05T05:31:39.859Z,1.07
2018-01-05T05:34:07.365Z,1.10
2018-01-05T05:36:34.817Z,0.70
2018-01-05T05:39:03.042Z,1.70
2018-01-05T05:41:30.602Z,0.93
2018-01-05T05:43:58.111Z,1.00
2018-01-05T05:46:26.376Z,0.73
2018-01-05T05:48:53.867Z,0.87
2018-01-05T05:51:21.412Z,0.80
2018-01-05T05:53:49.671Z,0.80
2018-01-05T05:56:17.199Z,1.23
2018-01-05T05:58:44.670Z,0.83
2018-01-05T06:01:12.174Z,0.70
2018-01-05T06:03:39.675Z,0.90
2018-01-05T06:06:07.158Z,1.60
2018-01-05T06:08:34.621Z,1.17
2018-01-05T06:11:02.898Z,1.33
2018-01-05T06:13:31.122Z,1.73
2018-01-05T06:15:58.570Z,1.23
2018-01-05T06:18:26.043Z,1.00
2018-01-05T06:20:53.538Z,1.97
2018-01-05T06:23:21.765Z,1.70
2018-01-05T06:25:49.227Z,1.40
2018-01-05T06:28:16.686Z,1.73
2018-01-05T06:30:44.127Z,1.53
2018-01-05T06:33:11.595Z,1.60
2018-01-05T06:35:39.039Z,1.80
2018-01-05T06:38:06.578Z,1.20
2018-01-05T06:40:34.054Z,1.87
2018-01-05T06:43:01.527Z,1.20
2018-01-05T06:45:29.033Z,1.60
2018-01-05T06:47:57.349Z,1.53
2018-01-05T06:50:24.788Z,1.47
2018-01-05T06:52:52.359Z,1.70
2018-01-05T06:55:19.825Z,1.63
2018-01-05T06:57:47.280Z,1.40
2018-01-05T07:00:14.735Z,1.20
2018-01-05T07:02:42.190Z,1.73
2018-01-05T07:05:09.670Z,1.00
2018-01-05T07:07:37.167Z,1.30
2018-01-05T07:10:04.669Z,1.10
2018-01-05T07:12:32.144Z,1.30
2018-01-05T07:14:59.615Z,1.93
2018-01-05T07:17:27.078Z,2.00
2018-01-05T07:19:54.583Z,1.63
2018-01-05T07:22:22.042Z,1.77
2018-01-05T07:24:49.546Z,1.47
2018-01-05T07:27:17.079Z,1.70
2018-01-05T07:29:44.526Z,1.83
2018-01-05T07:32:11.998Z,1.90
2018-01-05T07:34:39.450Z,2.10
2018-01-05T07:37:07.702Z,2.03
2018-01-05T07:39:35.206Z,2.93
2018-01-05T07:42:02.658Z,3.17
2018-01-05T07:44:30.163Z,3.53
2018-01-05T07:46:57.622Z,2.53
2018-01-05T07:49:25.135Z,2.87
2018-01-05T07:51:52.612Z,3.17
2018-01-05T07:54:20.831Z,3.10
2018-01-05T07:56:48.287Z,3.07
2018-01-05T07:59:15.738Z,3.73
2018-01-05T08:01:43.203Z,3.87
2018-01-05T08:04:10.657Z,4.23
2018-01-05T08:06:38.123Z,4.87
2018-01-05T08:09:05.607Z,5.30
2018-01-05T08:11:33.060Z,5.00
2018-01-05T08:14:00.511Z,5.63
2018-01-05T08:16:28.007Z,5.50
2018-01-05T08:18:55.472Z,5.40
2018-01-05T08:21:22.929Z,5.60
2018-01-05T08:23:50.402Z,6.00
2018-01-05T08:26:17.855Z,5.23
2018-01-05T08:28:45.314Z,5.77
2018-01-05T08:31:12.775Z,5.43
2018-01-05T08:33:40.230Z,4.70
2018-01-05T08:36:07.698Z,3.93
2018-01-05T08:38:35.178Z,4.10
2018-01-05T08:41:02.633Z,3.97
2018-01-05T08:43:30.112Z,4.73
2018-01-05T08:45:58.474Z,4.53
2018-01-05T08:48:25.938Z,4.13
2018-01-05T08:50:53.398Z,4.27
2018-01-05T08:53:20.845Z,4.13
2018-01-05T08:55:48.299Z,4.43
2018-01-05T08:58:15.768Z,5.20
2018-01-05T09:00:43.227Z,5.37
2018-01-05T09:03:10.678Z,4.97
2018-01-05T09:05:38.140Z,5.00
2018-01-05T09:08:05.640Z,4.93
2018-01-05T09:10:33.092Z,4.80
2018-01-05T09:13:00.567Z,5.53
2018-01-05T09:15:28.010Z,4.63
2018-01-05T09:17:55.468Z,4.90
2018-01-05T09:20:22.951Z,5.73
2018-01-05T09:22:50.405Z,5.23
2018-01-05T09:25:17.886Z,4.73
2018-01-05T09:27:45.341Z,4.10
2018-01-05T09:30:12.810Z,3.57
2018-01-05T09:32:41.038Z,5.20
2018-01-05T09:35:08.506Z,4.50
2018-01-05T09:37:35.979Z,4.37
2018-01-05T09:40:03.436Z,4.87
2018-01-05T09:42:30.933Z,4.07
2018-01-05T09:44:58.387Z,4.07
2018-01-05T09:47:25.842Z,4.30
2018-01-05T09:49:54.069Z,3.83
2018-01-05T09:52:21.521Z,3.50
2018-01-05T09:54:48.987Z,3.30
2018-01-05T09:57:16.455Z,3.37
2018-01-05T09:59:43.910Z,3.30
2018-01-05T10:02:11.374Z,2.37
2018-01-05T10:04:38.821Z,2.80
2018-01-05T10:07:06.287Z,2.87
2018-01-05T10:09:33.812Z,3.33
2018-01-05T10:12:01.263Z,3.00
2018-01-05T10:14:28.735Z,2.87
2018-01-05T10:16:56.191Z,2.10
2018-01-05T10:19:24.404Z,2.50
2018-01-05T10:21:52.638Z,2.77
2018-01-05T10:24:20.095Z,2.17
2018-01-05T10:26:47.572Z,2.47
2018-01-05T10:29:15.084Z,2.47
2018-01-05T10:31:42.542Z,2.67
2018-01-05T10:34:10.008Z,3.63
2018-01-05T10:36:37.483Z,2.40
2018-01-05T10:39:04.940Z,2.20
2018-01-05T10:41:32.408Z,2.57
2018-01-05T10:43:59.887Z,2.13
2018-01-05T10:46:28.107Z,2.43
2018-01-05T10:48:55.574Z,2.60
2018-01-05T10:51:23.031Z,2.93
2018-01-05T10:53:50.502Z,2.53
2018-01-05T10:56:17.979Z,3.47
2018-01-05T10:58:45.423Z,3.50
2018-01-05T11:01:12.902Z,3.00
2018-01-05T11:03:41.124Z,2.80
2018-01-05T11:06:08.582Z,2.80
2018-01-05T11:08:36.076Z,2.90
2018-01-05T11:11:03.514Z,3.77
2018-01-05T11:13:30.995Z,3.03
2018-01-05T11:15:58.463Z,3.50
2018-01-05T11:18:26.682Z,3.17
2018-01-05T11:20:54.135Z,4.30
2018-01-05T11:23:21.598Z,3.80
2018-01-05T11:25:49.046Z,5.33
2018-01-05T11:28:16.508Z,3.60
2018-01-05T11:30:43.975Z,3.20
2018-01-05T11:33:11.422Z,3.67
2018-01-05T11:35:38.879Z,4.87
2018-01-05T11:38:06.352Z,4.17
2018-01-05T11:40:33.814Z,3.60
2018-01-05T11:43:01.267Z,3.50
2018-01-05T11:45:28.796Z,4.13
2018-01-05T11:47:56.250Z,5.67
2018-01-05T11:50:23.698Z,3.20
2018-01-05T11:52:51.223Z,3.10
2018-01-05T11:55:18.680Z,4.60
2018-01-05T11:57:46.140Z,5.83
2018-01-05T12:00:14.376Z,4.83
2018-01-05T12:02:42.599Z,4.37
2018-01-05T12:05:10.838Z,4.83
2018-01-05T12:07:38.306Z,5.53
2018-01-05T12:10:05.772Z,6.50
2018-01-05T12:12:33.228Z,5.77
2018-01-05T12:15:00.687Z,3.80
2018-01-05T12:17:28.138Z,4.33
2018-01-05T12:19:55.594Z,4.80
2018-01-05T12:22:23.062Z,5.63
2018-01-05T12:24:51.295Z,5.17
2018-01-05T12:27:18.755Z,4.80
2018-01-05T12:29:46.234Z,4.73
2018-01-05T12:32:13.694Z,4.87
2018-01-05T12:34:41.156Z,5.70
2018-01-05T12:37:08.618Z,4.67
2018-01-05T12:39:36.085Z,5.47
2018-01-05T12:42:04.313Z,4.70
2018-01-05T12:44:31.786Z,5.07
2018-01-05T12:47:00.755Z,5.97
2018-01-05T12:49:28.206Z,6.27
2018-01-05T12:51:55.683Z,4.83
2018-01-05T12:54:23.158Z,4.50
2018-01-05T12:56:50.643Z,5.90
2018-01-05T12:59:18.880Z,7.20
2018-01-05T13:01:46.330Z,6.40
2018-01-05T13:04:13.829Z,6.00
2018-01-05T13:06:42.062Z,4.57
2018-01-05T13:09:09.518Z,5.07
2018-01-05T13:11:36.984Z,3.50
2018-01-05T13:14:04.447Z,3.70
2018-01-05T13:16:31.904Z,2.57
2018-01-05T13:18:59.361Z,2.87
2018-01-05T13:21:26.814Z,2.10
2018-01-05T13:23:54.266Z,1.40
2018-01-05T13:26:21.724Z,1.67
2018-01-05T13:28:49.182Z,2.00
2018-01-05T13:31:16.639Z,1.63
2018-01-05T13:33:44.096Z,1.60
2018-01-05T13:36:11.563Z,1.33
2018-01-05T13:38:39.015Z,1.80
2018-01-05T13:41:06.470Z,3.20
2018-01-05T13:43:33.937Z,3.20
2018-01-05T13:46:02.180Z,3.40
2018-01-05T13:48:29.635Z,4.00
2018-01-05T13:50:57.095Z,3.77
2018-01-05T13:53:24.572Z,4.90
2018-01-05T13:55:52.027Z,5.30
2018-01-05T13:58:19.478Z,5.47
2018-01-05T14:00:46.938Z,4.17
2018-01-05T14:03:14.395Z,7.17
2018-01-05T14:05:41.860Z,8.80
2018-01-05T14:08:09.343Z,9.40
2018-01-05T14:10:37.591Z,7.53
2018-01-05T14:13:05.038Z,10.73
2018-01-05T14:15:32.506Z,8.50
2018-01-05T14:17:59.975Z,10.10
2018-01-05T14:20:28.207Z,7.17
2018-01-05T14:22:55.687Z,7.90
2018-01-05T14:25:23.139Z,7.63
2018-01-05T14:27:50.631Z,6.70
2018-01-05T14:30:18.856Z,8.17
2018-01-05T14:32:46.316Z,7.07
2018-01-05T14:35:13.811Z,7.33
2018-01-05T14:37:42.044Z,4.13
2018-01-05T14:40:09.499Z,3.40
2018-01-05T14:42:36.973Z,1.90
2018-01-05T14:45:04.427Z,1.00
2018-01-05T14:47:31.890Z,1.40
2018-01-05T14:49:59.369Z,1.30
2018-01-05T14:52:27.592Z,1.33
2018-01-05T14:54:55.059Z,1.70
2018-01-05T14:57:22.528Z,1.63
2018-01-05T14:59:49.974Z,1.60
2018-01-05T15:02:17.455Z,1.50
2018-01-05T15:04:44.907Z,1.73
2018-01-05T15:07:12.372Z,1.80
2018-01-05T15:09:39.851Z,1.80
2018-01-05T15:12:08.073Z,0.90
2018-01-05T15:14:35.536Z,1.47
2018-01-05T15:17:02.993Z,1.50
2018-01-05T15:19:30.483Z,1.30
2018-01-05T15:21:58.723Z,1.00
2018-01-05T15:24:26.186Z,1.90
2018-01-05T15:26:53.644Z,0.97
2018-01-05T15:29:21.102Z,1.07
2018-01-05T15:31:48.599Z,1.27
2018-01-05T15:34:16.844Z,1.37
2018-01-05T15:36:44.345Z,1.73
2018-01-05T15:39:12.575Z,0.90
2018-01-05T15:41:40.111Z,1.30
2018-01-05T15:44:07.622Z,1.23
2018-01-05T15:46:35.082Z,1.70
2018-01-05T15:49:02.552Z,1.57
2018-01-05T15:51:30.012Z,1.30
2018-01-05T15:53:57.487Z,1.23
2018-01-05T15:56:24.950Z,1.73
2018-01-05T15:58:52.409Z,1.43
2018-01-05T16:01:19.893Z,2.03
2018-01-05T16:03:47.362Z,1.87
2018-01-05T16:06:15.586Z,2.40
2018-01-05T16:08:43.040Z,1.70
2018-01-05T16:11:10.509Z,3.10
2018-01-05T16:13:37.950Z,2.10
2018-01-05T16:16:05.398Z,2.80
2018-01-05T16:18:32.862Z,3.37
2018-01-05T16:21:00.343Z,3.20
2018-01-05T16:23:27.799Z,2.77
2018-01-05T16:25:56.123Z,3.77
2018-01-05T16:28:23.595Z,4.33
2018-01-05T16:30:51.063Z,5.53
2018-01-05T16:33:18.514Z,4.70
2018-01-05T16:35:46.111Z,5.67
2018-01-05T16:38:14.361Z,6.70
2018-01-05T16:40:41.795Z,7.60
2018-01-05T16:43:09.274Z,7.50
2018-01-05T16:45:36.731Z,7.53
2018-01-05T16:48:04.197Z,5.90
2018-01-05T16:50:31.654Z,8.30
2018-01-05T16:52:59.117Z,8.60
2018-01-05T16:55:27.589Z,7.40
2018-01-05T16:57:55.060Z,7.47
2018-01-05T17:00:22.516Z,9.33
2018-01-05T17:02:50.019Z,12.20
2018-01-05T17:05:18.263Z,10.23
2018-01-05T17:07:45.732Z,11.63
2018-01-05T17:10:15.208Z,9.93
2018-01-05T17:12:42.690Z,12.80
2018-01-05T17:15:10.147Z,10.47
2018-01-05T17:17:38.374Z,11.50
2018-01-05T17:20:05.844Z,10.80
2018-01-05T17:22:33.373Z,12.53
2018-01-05T17:25:00.850Z,10.90
2018-01-05T17:27:28.362Z,9.07
2018-01-05T17:29:56.585Z,8.00
2018-01-05T17:32:24.844Z,7.90
2018-01-05T17:34:52.337Z,6.60
2018-01-05T17:37:19.860Z,7.90
2018-01-05T17:39:47.359Z,5.63
2018-01-05T17:42:15.100Z,5.73
2018-01-05T17:44:42.735Z,6.60
2018-01-05T17:47:11.074Z,4.37
2018-01-05T17:49:39.374Z,4.00
2018-01-05T17:52:07.734Z,3.30
2018-01-05T17:54:36.025Z,3.50
2018-01-05T17:57:04.266Z,3.20
2018-01-05T17:59:31.793Z,3.60
2018-01-05T18:02:00.034Z,3.37
2018-01-05T18:04:28.254Z,4.27
2018-01-05T18:06:55.714Z,2.60
2018-01-05T18:09:23.172Z,3.00
2018-01-05T18:11:50.692Z,3.10
2018-01-05T18:14:18.143Z,2.67
2018-01-05T18:16:45.599Z,3.00
2018-01-05T18:19:13.074Z,2.30
2018-01-05T18:21:40.526Z,2.97
2018-01-05T18:24:07.998Z,2.60
2018-01-05T18:26:35.473Z,3.17
2018-01-05T18:29:03.002Z,3.57
2018-01-05T18:31:30.461Z,2.20
2018-01-05T18:33:57.922Z,3.03
2018-01-05T18:36:25.377Z,2.47
2018-01-05T18:38:52.843Z,2.20
2018-01-05T18:41:20.468Z,2.97
2018-01-05T18:43:48.671Z,3.23
2018-01-05T18:46:16.379Z,2.53
2018-01-05T18:48:43.831Z,3.50
2018-01-05T18:51:11.351Z,3.50
2018-01-05T18:53:38.836Z,3.30
2018-01-05T18:56:06.319Z,3.20
2018-01-05T18:58:35.098Z,3.10
2018-01-05T19:01:02.551Z,3.00
2018-01-05T19:03:30.022Z,4.47
2018-01-05T19:05:58.266Z,4.20
2018-01-05T19:08:25.970Z,3.60
2018-01-05T19:10:53.525Z,4.03
2018-01-05T19:13:21.839Z,4.47
2018-01-05T19:15:49.327Z,3.97
2018-01-05T19:18:16.828Z,4.27
2018-01-05T19:20:44.302Z,4.03
2018-01-05T19:23:11.788Z,4.50
2018-01-05T19:25:40.043Z,4.10
2018-01-05T19:28:07.500Z,4.50
2018-01-05T19:30:34.979Z,4.80
2018-01-05T19:33:09.788Z,4.40
2018-01-05T19:35:37.263Z,4.60
2018-01-05T19:38:04.756Z,4.53
2018-01-05T19:40:33.055Z,5.83
2018-01-05T19:43:00.591Z,4.67
2018-01-05T19:45:28.848Z,4.37
2018-01-05T19:47:56.303Z,4.43
2018-01-05T19:50:23.816Z,5.43
2018-01-05T19:52:51.284Z,5.57
2018-01-05T19:55:18.752Z,5.40
2018-01-05T19:57:46.280Z,5.83
2018-01-05T20:00:13.756Z,4.17
2018-01-05T20:02:41.323Z,5.50
2018-01-05T20:05:08.784Z,4.97
2018-01-05T20:07:36.261Z,5.80
2018-01-05T20:10:03.790Z,5.10
2018-01-05T20:12:31.335Z,6.10
2018-01-05T20:14:58.850Z,5.77
2018-01-05T20:17:27.106Z,5.10
2018-01-05T20:19:54.587Z,4.73
2018-01-05T20:22:22.893Z,4.73
2018-01-05T20:24:50.439Z,5.60
2018-01-05T20:27:17.919Z,4.27
2018-01-05T20:29:45.391Z,5.37
2018-01-05T20:32:12.861Z,5.03
2018-01-05T20:34:40.321Z,4.43
2018-01-05T20:37:07.922Z,5.03
2018-01-05T20:39:35.439Z,4.97
2018-01-05T20:42:03.199Z,4.20
2018-01-05T20:44:30.863Z,5.00
2018-01-05T20:46:58.327Z,5.60
2018-01-05T20:49:25.856Z,4.70
2018-01-05T20:51:53.334Z,4.90
2018-01-05T20:54:20.795Z,4.53
2018-01-05T20:56:48.959Z,4.20
2018-01-05T20:59:17.478Z,4.60
2018-01-05T21:01:45.964Z,5.93
2018-01-05T21:04:15.236Z,6.67
2018-01-05T21:06:43.011Z,4.03
2018-01-05T21:09:10.528Z,4.60
2018-01-05T21:11:40.630Z,4.80
2018-01-05T21:14:08.234Z,4.50
2018-01-05T21:16:37.438Z,4.20
2018-01-05T21:19:05.960Z,3.60
2018-01-05T21:21:33.602Z,4.00
2018-01-05T21:24:01.833Z,3.40
2018-01-05T21:26:29.702Z,4.20
2018-01-05T21:28:57.191Z,3.23
2018-01-05T21:31:24.687Z,3.80
2018-01-05T21:33:52.154Z,3.80
2018-01-05T21:36:19.662Z,3.73
2018-01-05T21:38:47.907Z,4.27
2018-01-05T21:41:15.366Z,3.50
2018-01-05T21:43:42.901Z,3.73
2018-01-05T21:46:10.363Z,3.90
2018-01-05T21:48:37.826Z,4.13
2018-01-05T21:51:05.306Z,3.50
2018-01-05T21:53:33.020Z,3.27
2018-01-05T21:56:00.493Z,2.90
2018-01-05T21:58:27.942Z,3.27
2018-01-05T22:00:56.171Z,4.03
2018-01-05T22:03:24.459Z,3.77
2018-01-05T22:05:52.686Z,3.10
2018-01-05T22:08:20.155Z,3.33
2018-01-05T22:10:47.693Z,3.33
2018-01-05T22:13:15.150Z,3.47
2018-01-05T22:15:42.626Z,3.60
2018-01-05T22:18:10.109Z,3.20
2018-01-05T22:20:38.360Z,4.00
2018-01-05T22:23:05.883Z,3.10
2018-01-05T22:25:33.353Z,2.13
2018-01-05T22:28:00.817Z,2.53
2018-01-05T22:30:28.346Z,3.20
2018-01-05T22:32:55.818Z,2.90
2018-01-05T22:35:23.292Z,3.10
2018-01-05T22:37:50.768Z,3.70
2018-01-05T22:40:18.237Z,3.60
2018-01-05T22:42:45.700Z,3.57
2018-01-05T22:45:13.955Z,2.27
2018-01-05T22:47:41.426Z,3.60
2018-01-05T22:50:09.659Z,2.87
2018-01-05T22:52:37.127Z,3.23
2018-01-05T22:55:04.595Z,2.63
2018-01-05T22:57:32.054Z,2.70
2018-01-05T22:59:59.528Z,2.60
2018-01-05T23:02:27.767Z,2.87
2018-01-05T23:04:55.230Z,2.30
2018-01-05T23:07:22.699Z,3.23
2018-01-05T23:09:50.185Z,2.83
2018-01-05T23:12:18.466Z,2.33
2018-01-05T23:14:45.946Z,2.53
2018-01-05T23:17:13.415Z,2.63
2018-01-05T23:19:40.891Z,2.90
2018-01-05T23:22:08.424Z,2.70
2018-01-05T23:24:35.886Z,2.17
2018-01-05T23:27:03.401Z,2.70
2018-01-05T23:29:31.647Z,3.00
2018-01-05T23:31:59.134Z,3.00
2018-01-05T23:34:27.440Z,2.90
2018-01-05T23:36:54.904Z,3.60
2018-01-05T23:39:22.407Z,2.20
2018-01-05T23:41:49.878Z,2.90
2018-01-05T23:44:18.136Z,2.60
2018-01-05T23:46:45.591Z,2.90
2018-01-05T23:49:13.063Z,3.20
2018-01-05T23:51:41.294Z,3.40
2018-01-05T23:54:08.788Z,3.20
2018-01-05T23:56:36.275Z,2.27
2018-01-05T23:59:03.769Z,2.63
